LZKZ/KSC METAR and TAF weather

Enter ICAO airport designator
Station Type Date Time Source
LZKZ METAR 2019/10/15 04:00 UTC NOAA

LZKZ 150400Z 35004KT CAVOK 10/09 Q1018


Station Type Date Time Source
LZKZ Decoded METAR 2019/10/15 04:00 UTC NOAA

Kosice, Barca, Slovakia (LZKZ) 48-39-47N 021-14-28E
Oct 15, 2019 - 12:00 AM EDT / 2019.10.15 0400 UTC
Wind: from the N (350 degrees) at 5 MPH (4 KT):0
Visibility: greater than 7 mile(s):0
Temperature: 50 F (10 C)
Dew Point: 48 F (9 C)
Relative Humidity: 93%
Pressure (altimeter): 30.06 in. Hg (1018 hPa)
ob: LZKZ 150400Z 35004KT CAVOK 10/09 Q1018
cycle: 4

Station Type Date Time Source
LZKZ TAF 2019/10/14 18:39 UTC NOAA

TAF LZKZ 141700Z 1418/1518 VRB02KT CAVOK
BECMG 1423/1501 4000 BCFG SCT002 PROB40
TEMPO 1501/1506 0500 FG OVC002
BECMG 1508/1510 20008KT CAVOK

Example: see airport list